Time;durP1;ratioP1;P1;durP2;ratioP2;P2;SDS_P1;SDS_P2;PMS_P1;PMS_P2;Temp;Humidity;BMP_temperature;BMP_pressure;BME280_temperature;BME280_humidity;BME280_pressure;Samples;Min_cycle;Max_cycle;Signal;HPM_P1;HPM_P2
2022/11/02 04:50:17;;;;;;;;;;;10.30;99.90;;;;;;5181958;27;19922;-78
2022/11/02 04:53:07;;;;;;;;;;;10.40;99.90;;;;;;5173919;27;19971;-78
2022/11/02 04:55:54;;;;;;;;;;;10.50;99.90;;;;;;5175399;27;19914;-79
2022/11/02 04:58:22;;;;;;;;;;;10.50;99.90;;;;;;5154829;27;19914;-79
2022/11/02 05:00:55;;;;;;;;;;;10.40;99.90;;;;;;5140018;27;19994;-80
2022/11/02 05:03:23;;;;;;;;;;;10.40;99.90;;;;;;5136070;27;19915;-78
2022/11/02 05:09:23;;;;;;;;;;;10.50;99.90;;;;;;5134008;27;19926;-80
2022/11/02 05:15:36;;;;;;;;;;;10.40;99.90;;;;;;5115438;27;19955;-80
2022/11/02 05:18:23;;;;;;;;;;;10.30;99.90;;;;;;5149200;27;19939;-80
2022/11/02 05:21:08;;;;;;;;;;;10.30;99.90;;;;;;5135524;27;19915;-81
2022/11/02 05:24:05;;;;;;;;;;;;;;;;;;;;;
2022/11/02 05:30:39;;;;;;;;;;;10.40;99.90;;;;;;5110712;27;19915;-80
2022/11/02 05:33:11;;;;;;;;;;;10.50;99.90;;;;;;5053474;28;19916;-79
2022/11/02 05:42:01;;;;;;;;;;;10.60;99.90;;;;;;5104338;27;19919;-82
2022/11/02 05:51:14;;;;;;;;;;;10.70;99.90;;;;;;5055558;28;19916;-79
2022/11/02 05:54:33;;;;;;;;;;;10.60;99.90;;;;;;5074824;28;20276;-79
2022/11/02 05:57:47;;;;;;;;;;;10.60;99.90;;;;;;5005878;28;19917;-78
2022/11/02 06:07:26;;;;;;;;;;;10.80;99.90;;;;;;5056389;28;19942;-81
2022/11/02 06:17:02;;;;;;;;;;;11.00;99.90;;;;;;5015437;28;19923;-81
2022/11/02 06:20:17;;;;;;;;;;;;;;;;;;;;;
2022/11/02 06:44:36;;;;;;;;;;;;;;;;;;;;;
2022/11/02 08:04:04;;;;;;;;;;;11.40;99.90;;;;;;5839602;22;19921;-79
2022/11/02 08:35:16;;;;;;;;;;;11.90;99.90;;;;;;5013729;28;20380;-76
2022/11/02 08:52:26;;;;;;;;;;;12.20;99.90;;;;;;5285339;22;19957;-80
2022/11/02 08:54:52;;;;;;;;;;;12.20;99.90;;;;;;4965437;28;19967;-78
2022/11/02 09:07:51;;;;;;;;;;;12.20;99.90;;;;;;5013786;28;19925;-74
2022/11/02 09:10:34;;;;;;;;;;;12.40;99.90;;;;;;4994447;28;19964;-77
2022/11/02 09:13:13;;;;;;;;;;;12.50;99.90;;;;;;4979705;28;19924;-74
2022/11/02 09:19:24;;;;;;;;;;;12.60;99.90;;;;;;4999186;28;19964;-81
2022/11/02 09:25:08;;;;;;;;;;;12.70;99.90;;;;;;4964362;28;19925;-73
2022/11/02 09:28:16;;;;;;;;;;;12.80;99.90;;;;;;4978730;28;19917;-76
2022/11/02 09:30:47;;;;;;;;;;;12.80;99.90;;;;;;4991308;28;19928;-75
2022/11/02 09:33:13;;;;;;;;;;;12.70;99.90;;;;;;4977785;28;19996;-75
2022/11/02 10:13:37;;;;;;;;;;;12.70;99.90;;;;;;5176586;23;19960;-83
2022/11/02 10:27:06;;;;;;;;;;;12.80;99.90;;;;;;4906941;29;20006;-80
2022/11/02 10:40:56;;;;;;;;;;;13.30;99.90;;;;;;4875883;29;19952;-82
2022/11/02 10:47:02;;;;;;;;;;;13.50;99.90;;;;;;4857872;29;19935;-85
2022/11/02 10:50:07;;;;;;;;;;;13.40;99.90;;;;;;4856888;29;20441;-87
2022/11/02 10:52:37;;;;;;;;;;;13.50;99.90;;;;;;4911064;29;19925;-77
2022/11/02 10:55:03;;;;;;;;;;;13.40;99.90;;;;;;4970233;28;19918;-77
2022/11/02 10:57:31;;;;;;;;;;;13.40;99.90;;;;;;4976407;28;19925;-79
2022/11/02 11:00:15;;;;;;;;;;;13.40;99.90;;;;;;4978744;28;19922;-78
2022/11/02 11:02:41;;;;;;;;;;;13.30;99.90;;;;;;4978859;28;19925;-77
2022/11/02 11:05:33;;;;;;;;;;;13.30;99.90;;;;;;4995853;28;19925;-76
2022/11/02 11:07:59;;;;;;;;;;;13.30;99.90;;;;;;4975788;28;19918;-77
2022/11/02 11:10:26;;;;;;;;;;;13.30;99.90;;;;;;4976622;28;19925;-79
2022/11/02 11:12:53;;;;;;;;;;;13.30;99.90;;;;;;4959357;28;19922;-75
2022/11/02 11:15:30;;;;;;;;;;;13.30;99.90;;;;;;4959506;28;19918;-77
2022/11/02 11:17:56;;;;;;;;;;;13.30;99.90;;;;;;4978513;28;19929;-76
2022/11/02 11:20:35;;;;;;;;;;;13.20;99.90;;;;;;4995105;28;19917;-77
2022/11/02 11:23:09;;;;;;;;;;;13.20;99.90;;;;;;4995389;28;19922;-76
2022/11/02 11:25:34;;;;;;;;;;;13.20;99.90;;;;;;4979007;28;19922;-75
2022/11/02 11:28:00;;;;;;;;;;;13.20;99.90;;;;;;4978221;28;19965;-78
2022/11/02 11:30:29;;;;;;;;;;;13.20;99.90;;;;;;4981662;28;20254;-78
2022/11/02 11:32:57;;;;;;;;;;;13.30;99.90;;;;;;4981925;28;19924;-78
2022/11/02 11:35:34;;;;;;;;;;;13.30;99.90;;;;;;4980061;28;20365;-78
2022/11/02 11:38:01;;;;;;;;;;;13.40;99.90;;;;;;4973762;28;19921;-77
2022/11/02 11:40:30;;;;;;;;;;;13.30;99.90;;;;;;4976201;28;19921;-80
2022/11/02 11:42:56;;;;;;;;;;;13.40;99.90;;;;;;4982081;28;20257;-80
2022/11/02 11:45:26;;;;;;;;;;;13.30;99.90;;;;;;4981806;28;19921;-78
2022/11/02 11:47:56;;;;;;;;;;;13.30;99.90;;;;;;4981702;28;19928;-80
2022/11/02 11:50:22;;;;;;;;;;;13.30;99.90;;;;;;4973676;28;19924;-75
2022/11/02 11:53:07;;;;;;;;;;;13.30;99.90;;;;;;4965897;28;20286;-76
2022/11/02 11:55:43;;;;;;;;;;;;;;;;;;;;;
2022/11/02 11:58:27;;;;;;;;;;;13.30;99.90;;;;;;4985083;28;19917;-82
2022/11/02 12:01:22;;;;;;;;;;;13.30;99.90;;;;;;4981450;28;19918;-81
2022/11/02 14:08:34;;;;;;;;;;;13.00;99.90;;;;;;4722126;26;19926;-76
2022/11/02 14:11:02;;;;;;;;;;;13.00;99.90;;;;;;4919740;29;20267;-76
2022/11/02 14:13:48;;;;;;;;;;;13.00;99.90;;;;;;4888165;29;19922;-74
2022/11/02 14:16:33;;;;;;;;;;;12.90;99.90;;;;;;4874476;29;19918;-75
2022/11/02 14:19:17;;;;;;;;;;;12.90;99.90;;;;;;4887539;29;20432;-75
2022/11/02 14:21:48;;;;;;;;;;;12.80;99.90;;;;;;4887651;29;19923;-75
2022/11/02 14:24:35;;;;;;;;;;;12.80;99.90;;;;;;4918911;29;19919;-74
2022/11/02 14:27:05;;;;;;;;;;;12.60;99.90;;;;;;4921674;29;19931;-74
2022/11/02 14:29:46;;;;;;;;;;;12.60;99.90;;;;;;4906992;29;19952;-73
2022/11/02 14:32:29;;;;;;;;;;;12.50;99.90;;;;;;4907031;29;19922;-74
2022/11/02 14:34:55;;;;;;;;;;;12.40;99.90;;;;;;4921978;29;19919;-74
2022/11/02 14:37:28;;;;;;;;;;;12.40;99.90;;;;;;4921865;29;20009;-74
2022/11/02 14:40:17;;;;;;;;;;;12.30;99.90;;;;;;4922292;29;20383;-74
2022/11/02 14:43:04;;;;;;;;;;;12.30;99.90;;;;;;4922038;29;19969;-74
2022/11/02 14:45:51;;;;;;;;;;;12.20;99.90;;;;;;4921314;29;19930;-74
2022/11/02 14:48:20;;;;;;;;;;;12.20;99.90;;;;;;4921003;29;19929;-74
2022/11/02 14:50:58;;;;;;;;;;;12.20;99.90;;;;;;4906637;29;19970;-74
2022/11/02 14:53:26;;;;;;;;;;;12.40;99.90;;;;;;4922069;29;19925;-74
2022/11/02 14:55:53;;;;;;;;;;;12.10;99.90;;;;;;4905646;29;19926;-74
2022/11/02 14:58:21;;;;;;;;;;;12.10;99.90;;;;;;4905776;29;19925;-74
2022/11/02 15:00:59;;;;;;;;;;;12.10;99.90;;;;;;4921898;29;19918;-74
2022/11/02 15:03:27;;;;;;;;;;;12.10;99.90;;;;;;4906181;29;19918;-74
2022/11/02 15:06:02;;;;;;;;;;;12.00;99.90;;;;;;4921291;29;19919;-74
2022/11/02 15:08:32;;;;;;;;;;;11.90;99.90;;;;;;4904997;29;19923;-73
2022/11/02 15:10:57;;;;;;;;;;;12.00;99.90;;;;;;4921438;29;19919;-73
2022/11/02 15:13:47;;;;;;;;;;;11.90;99.90;;;;;;4905284;29;19919;-75
2022/11/02 15:16:14;;;;;;;;;;;11.90;99.90;;;;;;4920964;29;19962;-74
2022/11/02 15:18:40;;;;;;;;;;;11.90;99.90;;;;;;4905572;29;19926;-74
2022/11/02 15:21:09;;;;;;;;;;;11.90;99.90;;;;;;4905596;29;19918;-73
2022/11/02 15:23:47;;;;;;;;;;;12.00;99.90;;;;;;4905519;29;19925;-74
2022/11/02 15:26:17;;;;;;;;;;;11.90;99.90;;;;;;4921111;29;19923;-73
2022/11/02 15:28:53;;;;;;;;;;;11.90;99.90;;;;;;4905600;29;19946;-74
2022/11/02 15:31:19;;;;;;;;;;;12.00;99.90;;;;;;4904074;29;19919;-74
2022/11/02 15:33:46;;;;;;;;;;;12.00;99.90;;;;;;4920827;29;19919;-75
2022/11/02 15:36:14;;;;;;;;;;;12.00;99.90;;;;;;4905614;29;19929;-75
2022/11/02 15:38:43;;;;;;;;;;;12.00;99.90;;;;;;4920596;29;19925;-75
2022/11/02 15:41:08;;;;;;;;;;;12.00;99.90;;;;;;4904926;29;19918;-74
2022/11/02 15:43:48;;;;;;;;;;;12.00;99.90;;;;;;4905302;29;20001;-74
2022/11/02 15:46:40;;;;;;;;;;;12.00;99.90;;;;;;4904954;29;20372;-74
2022/11/02 15:49:22;;;;;;;;;;;11.80;99.90;;;;;;4919720;29;20264;-75
2022/11/02 16:04:32;;;;;;;;;;;11.70;99.90;;;;;;4976975;23;20278;-76
2022/11/02 16:07:05;;;;;;;;;;;11.60;99.90;;;;;;4926178;28;19970;-77
2022/11/02 16:23:22;;;;;;;;;;;11.60;99.90;;;;;;4855493;29;19964;-77
2022/11/02 16:26:04;;;;;;;;;;;11.50;99.90;;;;;;4870329;29;20426;-74
2022/11/02 16:28:30;;;;;;;;;;;11.50;99.90;;;;;;4948788;28;20430;-72
2022/11/02 16:45:40;;;;;;;;;;;11.30;99.90;;;;;;4955392;29;19921;-81
2022/11/02 16:48:18;;;;;;;;;;;11.50;99.90;;;;;;4922918;29;19922;-79
2022/11/02 17:51:25;;;;;;;;;;;10.50;99.90;;;;;;5227787;22;19922;-72
2022/11/02 17:53:54;;;;;;;;;;;10.70;99.90;;;;;;4975187;28;19918;-77
2022/11/02 18:16:26;;;;;;;;;;;10.50;99.90;;;;;;5617416;22;19930;-73
2022/11/02 20:56:23;;;;;;;;;;;10.70;99.90;;;;;;4907892;29;19949;-75
2022/11/02 20:59:02;;;;;;;;;;;10.70;99.90;;;;;;4879004;29;20010;-74
2022/11/02 21:05:49;;;;;;;;;;;;;;;;;;;;;
2022/11/02 21:21:18;;;;;;;;;;;10.80;99.90;;;;;;4913737;29;20359;-74
2022/11/02 21:27:25;;;;;;;;;;;10.80;99.90;;;;;;4916167;29;19926;-75
